createdAt,value
2023-01-29T00:02:25.506Z,103125.53
2023-01-29T00:04:52.154Z,103112.09
2023-01-29T00:07:21.680Z,103121.03
2023-01-29T00:09:48.325Z,103123.69
2023-01-29T00:12:14.934Z,103110.22
2023-01-29T00:14:41.447Z,103102.28
2023-01-29T00:17:08.011Z,103094.28
2023-01-29T00:19:36.330Z,103099.59
2023-01-29T00:22:02.855Z,103102.38
2023-01-29T00:24:31.704Z,103070.72
2023-01-29T00:27:00.476Z,103094.78
2023-01-29T00:29:29.285Z,103094.81
2023-01-29T00:31:56.013Z,103088.69
2023-01-29T00:34:23.516Z,103092.25
2023-01-29T00:36:52.459Z,103086.97
2023-01-29T00:39:33.619Z,103081.63
2023-01-29T00:42:25.215Z,103005.59
2023-01-29T00:45:00.458Z,103074.63
2023-01-29T00:47:36.464Z,103073.81
2023-01-29T00:50:06.274Z,103052.47
2023-01-29T00:52:32.995Z,103064.00
2023-01-29T00:55:00.796Z,103064.88
2023-01-29T00:57:31.912Z,103063.09
2023-01-29T01:00:00.803Z,103065.81
2023-01-29T01:02:46.330Z,103049.81
2023-01-29T01:05:18.273Z,103072.88
2023-01-29T01:07:50.160Z,103049.78
2023-01-29T01:10:39.354Z,103046.28
2023-01-29T01:13:07.752Z,103069.13
2023-01-29T01:15:36.694Z,103077.13
2023-01-29T01:18:04.082Z,103067.28
2023-01-29T01:20:33.610Z,103048.69
2023-01-29T01:23:00.225Z,103057.50
2023-01-29T01:25:27.472Z,103025.56
2023-01-29T01:27:55.688Z,103059.16
2023-01-29T01:30:23.371Z,103055.50
2023-01-29T01:32:52.478Z,103037.88
2023-01-29T01:35:20.261Z,103055.63
2023-01-29T01:37:46.791Z,103043.25
2023-01-29T01:40:20.251Z,103044.84
2023-01-29T01:42:56.460Z,103060.84
2023-01-29T01:45:36.805Z,103063.50
2023-01-29T01:48:19.571Z,103058.25
2023-01-29T01:50:49.878Z,103057.19
2023-01-29T01:53:26.662Z,103060.72
2023-01-29T01:56:00.202Z,103051.03
2023-01-29T01:58:59.428Z,103074.16
2023-01-29T02:01:30.001Z,103019.31
2023-01-29T02:04:26.573Z,103018.44
2023-01-29T02:07:17.359Z,103064.41
2023-01-29T02:10:12.467Z,103077.59
2023-01-29T02:12:42.003Z,103081.22
2023-01-29T02:15:11.043Z,103042.25
2023-01-29T02:17:38.175Z,103092.72
2023-01-29T02:20:19.872Z,103087.34
2023-01-29T02:23:02.625Z,103090.00
2023-01-29T02:25:55.939Z,103085.50
2023-01-29T02:28:25.451Z,103080.03
2023-01-29T02:31:08.618Z,103057.03
2023-01-29T02:33:56.797Z,103083.53
2023-01-29T02:36:32.911Z,103062.28
2023-01-29T02:39:17.436Z,103075.47
2023-01-29T02:41:55.339Z,103081.69
2023-01-29T02:44:37.882Z,103001.19
2023-01-29T02:47:17.110Z,103065.47
2023-01-29T02:50:15.614Z,103055.72
2023-01-29T02:52:56.903Z,103045.94
2023-01-29T02:55:35.051Z,103066.25
2023-01-29T02:58:16.130Z,103041.41
2023-01-29T03:00:46.910Z,103059.91
2023-01-29T03:03:18.837Z,103053.72
2023-01-29T03:05:51.157Z,103029.78
2023-01-29T03:08:36.806Z,103058.09
2023-01-29T03:11:07.087Z,103059.00
2023-01-29T03:13:59.897Z,103048.41
2023-01-29T03:16:42.856Z,103067.00
2023-01-29T03:19:17.298Z,103058.88
2023-01-29T03:21:55.422Z,102987.34
2023-01-29T03:25:12.877Z,103063.25
2023-01-29T03:28:04.052Z,103058.78
2023-01-29T03:30:52.728Z,103047.25
2023-01-29T03:33:22.333Z,103060.53
2023-01-29T03:36:25.058Z,103065.00
2023-01-29T03:38:53.984Z,102979.97
2023-01-29T03:41:28.339Z,103051.56
2023-01-29T03:44:13.982Z,103047.97
2023-01-29T03:47:13.728Z,103045.22
2023-01-29T03:50:05.926Z,103046.13
2023-01-29T03:52:42.863Z,103039.75
2023-01-29T03:55:30.238Z,103028.94
2023-01-29T03:58:20.224Z,103001.19
2023-01-29T04:01:04.096Z,103013.59
2023-01-29T04:03:37.549Z,103022.50
2023-01-29T04:06:13.366Z,103021.50
2023-01-29T04:09:03.499Z,103013.41
2023-01-29T04:11:36.562Z,102999.09
2023-01-29T04:14:06.821Z,102999.88
2023-01-29T04:16:38.308Z,102976.97
2023-01-29T04:19:06.010Z,103012.41
2023-01-29T04:21:33.058Z,103010.56
2023-01-29T04:23:59.758Z,103010.56
2023-01-29T04:26:32.491Z,103015.91
2023-01-29T04:29:06.525Z,103013.25
2023-01-29T04:31:43.810Z,102990.09
2023-01-29T04:34:23.291Z,103002.41
2023-01-29T04:37:02.675Z,102987.13
2023-01-29T04:39:43.765Z,102965.81
2023-01-29T04:42:28.086Z,102959.56
2023-01-29T04:45:03.722Z,102974.50
2023-01-29T04:47:30.351Z,102971.81
2023-01-29T04:50:22.431Z,102974.41
2023-01-29T04:53:12.029Z,102953.78
2023-01-29T04:55:51.883Z,102945.94
2023-01-29T04:58:46.003Z,102958.25
2023-01-29T05:01:18.553Z,102939.88
2023-01-29T05:03:50.330Z,102943.31
2023-01-29T05:06:19.075Z,102944.88
2023-01-29T05:08:49.217Z,102961.66
2023-01-29T05:11:19.371Z,102947.28
2023-01-29T05:13:52.317Z,102919.75
2023-01-29T05:16:23.927Z,102917.88
2023-01-29T05:18:50.736Z,102939.09
2023-01-29T05:21:17.342Z,102939.00
2023-01-29T05:23:53.257Z,102925.75
2023-01-29T05:26:39.971Z,102919.44
2023-01-29T05:29:07.197Z,102923.69
2023-01-29T05:31:38.429Z,102919.16
2023-01-29T05:34:07.083Z,102930.84
2023-01-29T05:36:33.629Z,102929.97
2023-01-29T05:39:00.177Z,102932.66
2023-01-29T05:41:26.864Z,102944.31
2023-01-29T05:43:53.611Z,102941.66
2023-01-29T05:46:22.546Z,102946.00
2023-01-29T05:48:49.107Z,102949.69
2023-01-29T05:51:15.643Z,102947.94
2023-01-29T05:53:42.208Z,102877.28
2023-01-29T05:56:08.965Z,102956.75
2023-01-29T05:58:35.873Z,102963.91
2023-01-29T06:01:12.332Z,102949.50
2023-01-29T06:03:38.934Z,102949.50
2023-01-29T06:06:05.684Z,102951.34
2023-01-29T06:08:34.819Z,102938.00
2023-01-29T06:11:01.428Z,102953.91
2023-01-29T06:13:28.306Z,102963.66
2023-01-29T06:15:54.887Z,102970.78
2023-01-29T06:18:21.595Z,102971.59
2023-01-29T06:20:50.382Z,102970.69
2023-01-29T06:23:16.988Z,102971.56
2023-01-29T06:25:43.581Z,102949.06
2023-01-29T06:28:13.044Z,102923.91
2023-01-29T06:30:39.654Z,102922.91
2023-01-29T06:33:06.301Z,102890.94
2023-01-29T06:35:32.873Z,102917.44
2023-01-29T06:37:59.460Z,102908.66
2023-01-29T06:40:26.104Z,102929.06
2023-01-29T06:42:52.778Z,102925.47
2023-01-29T06:45:19.442Z,102922.78
2023-01-29T06:47:46.034Z,102926.38
2023-01-29T06:50:12.624Z,102923.59
2023-01-29T06:52:39.191Z,102920.94
2023-01-29T06:55:08.763Z,102913.81
2023-01-29T06:57:35.807Z,102844.06
2023-01-29T07:00:04.839Z,102912.78
2023-01-29T07:02:31.462Z,102874.94
2023-01-29T07:04:58.124Z,102920.81
2023-01-29T07:07:27.026Z,102927.09
2023-01-29T07:09:58.432Z,102909.38
2023-01-29T07:12:24.973Z,102922.72
2023-01-29T07:14:53.940Z,102931.53
2023-01-29T07:17:21.286Z,102929.75
2023-01-29T07:19:47.868Z,102935.16
2023-01-29T07:22:14.760Z,102928.94
2023-01-29T07:24:43.938Z,102927.06
2023-01-29T07:27:10.575Z,102918.91
2023-01-29T07:29:37.137Z,102909.03
2023-01-29T07:32:03.903Z,102917.94
2023-01-29T07:34:31.145Z,102917.06
2023-01-29T07:36:57.737Z,102913.41
2023-01-29T07:39:24.391Z,102828.69
2023-01-29T07:41:51.005Z,102907.25
2023-01-29T07:44:17.652Z,102907.28
2023-01-29T07:46:44.347Z,102930.41
2023-01-29T07:49:13.195Z,102922.28
2023-01-29T07:51:39.714Z,102899.22
2023-01-29T07:54:08.852Z,102911.63
2023-01-29T07:56:35.425Z,102903.50
2023-01-29T07:59:02.041Z,102906.97
2023-01-29T08:01:31.013Z,102908.63
2023-01-29T08:03:57.612Z,102914.91
2023-01-29T08:06:24.315Z,102898.06
2023-01-29T08:08:52.207Z,102910.34
2023-01-29T08:11:21.412Z,102906.75
2023-01-29T08:13:47.978Z,102899.53
2023-01-29T08:16:14.672Z,102889.75
2023-01-29T08:18:44.100Z,102893.94
2023-01-29T08:21:12.265Z,102896.59
2023-01-29T08:23:39.759Z,102884.09
2023-01-29T08:26:08.564Z,102893.84
2023-01-29T08:28:36.650Z,102886.69
2023-01-29T08:31:03.247Z,102874.03
2023-01-29T08:33:38.954Z,102863.88
2023-01-29T08:36:06.320Z,102837.25
2023-01-29T08:38:32.933Z,102845.91
2023-01-29T08:40:59.470Z,102839.50
2023-01-29T08:43:26.067Z,102842.88
2023-01-29T08:45:52.765Z,102858.00
2023-01-29T08:48:22.177Z,102871.38
2023-01-29T08:50:48.788Z,102791.16
2023-01-29T08:53:15.396Z,102879.25
2023-01-29T08:55:42.178Z,102747.75
2023-01-29T08:58:12.467Z,102871.19
2023-01-29T09:00:39.363Z,102880.75
2023-01-29T09:03:07.964Z,102848.75
2023-01-29T09:05:35.681Z,102868.03
2023-01-29T09:08:04.506Z,102865.22
2023-01-29T09:10:33.810Z,102859.88
2023-01-29T09:13:00.754Z,102840.50
2023-01-29T09:15:27.999Z,102821.25
2023-01-29T09:17:54.548Z,102852.09
2023-01-29T09:20:23.946Z,102847.63
2023-01-29T09:22:53.656Z,102846.47
2023-01-29T09:25:20.713Z,102841.13
2023-01-29T09:27:47.271Z,102856.28
2023-01-29T09:30:16.768Z,102836.63
2023-01-29T09:32:53.248Z,102852.59
2023-01-29T09:35:24.330Z,102853.41
2023-01-29T09:37:51.567Z,102849.78
2023-01-29T09:40:30.117Z,102847.03
2023-01-29T09:43:20.465Z,102851.63
2023-01-29T09:46:15.196Z,102848.81
2023-01-29T09:48:43.008Z,102847.91
2023-01-29T09:51:23.825Z,102857.88
2023-01-29T09:54:05.016Z,102848.00
2023-01-29T09:56:32.175Z,102844.22
2023-01-29T09:59:01.559Z,102852.22
2023-01-29T10:01:37.829Z,102844.72
2023-01-29T10:04:13.830Z,102850.06
2023-01-29T10:06:50.711Z,102826.16
2023-01-29T10:09:45.101Z,102845.41
2023-01-29T10:12:41.367Z,102848.94
2023-01-29T10:15:39.028Z,102844.41
2023-01-29T10:18:30.491Z,102847.06
2023-01-29T10:21:12.415Z,102841.72
2023-01-29T10:23:44.197Z,102835.63
2023-01-29T10:26:12.779Z,102843.72
2023-01-29T10:28:46.291Z,102772.91
2023-01-29T10:31:20.747Z,102844.31
2023-01-29T10:34:43.038Z,102842.81
2023-01-29T10:37:19.390Z,102828.22
2023-01-29T10:39:46.282Z,102843.25
2023-01-29T10:42:27.234Z,102806.97
2023-01-29T10:45:12.411Z,102837.72
2023-01-29T10:47:57.511Z,102832.31
2023-01-29T10:50:50.906Z,102823.28
2023-01-29T10:53:20.218Z,102819.19
2023-01-29T10:55:56.047Z,102808.09
2023-01-29T10:58:53.671Z,102778.16
2023-01-29T11:01:20.482Z,102788.34
2023-01-29T11:03:58.459Z,102765.38
2023-01-29T11:06:30.513Z,102784.47
2023-01-29T11:09:20.350Z,102779.81
2023-01-29T11:12:17.794Z,102768.72
2023-01-29T11:14:51.808Z,102745.84
2023-01-29T11:17:21.567Z,102766.09
2023-01-29T11:19:51.754Z,102733.41
2023-01-29T11:22:29.369Z,102755.66
2023-01-29T11:25:10.536Z,102738.69
2023-01-29T11:27:46.399Z,102731.06
2023-01-29T11:30:24.611Z,102730.84
2023-01-29T11:33:00.637Z,102721.97
2023-01-29T11:35:30.718Z,102733.56
2023-01-29T11:38:18.606Z,102729.88
2023-01-29T11:40:45.923Z,102726.06
2023-01-29T11:43:19.935Z,102711.63
2023-01-29T11:45:48.080Z,102690.81
2023-01-29T11:48:26.601Z,102658.38
2023-01-29T11:51:04.860Z,102688.22
2023-01-29T11:53:42.264Z,102705.88
2023-01-29T11:56:27.897Z,102709.50
2023-01-29T11:58:57.779Z,102698.69
2023-01-29T12:01:40.875Z,102707.84
2023-01-29T12:04:24.716Z,102579.63
2023-01-29T12:06:53.444Z,102693.22
2023-01-29T12:09:24.343Z,102681.06
2023-01-29T12:11:52.729Z,102670.50
2023-01-29T12:14:30.219Z,102668.88
2023-01-29T12:17:19.575Z,102668.97
2023-01-29T12:20:02.117Z,102659.38
2023-01-29T12:23:02.610Z,102656.72
2023-01-29T12:25:45.935Z,102656.88
2023-01-29T12:28:39.045Z,102636.59
2023-01-29T12:31:23.931Z,102652.41
2023-01-29T12:34:17.329Z,102649.78
2023-01-29T12:36:59.470Z,102639.63
2023-01-29T12:39:26.480Z,102633.41
2023-01-29T12:42:13.991Z,102606.31
2023-01-29T12:44:52.200Z,102622.59
2023-01-29T12:47:31.959Z,102619.91
2023-01-29T12:50:05.573Z,102619.31
2023-01-29T12:52:45.093Z,102613.91
2023-01-29T12:55:16.513Z,102611.06
2023-01-29T12:57:59.334Z,102582.97
2023-01-29T13:00:32.131Z,102592.31
2023-01-29T13:03:03.918Z,102600.22
2023-01-29T13:05:39.524Z,102598.41
2023-01-29T13:08:16.393Z,102587.56
2023-01-29T13:10:50.956Z,102590.00
2023-01-29T13:13:36.228Z,102589.06
2023-01-29T13:16:07.514Z,102561.44
2023-01-29T13:18:40.092Z,102568.28
2023-01-29T13:21:12.125Z,102539.34
2023-01-29T13:23:44.126Z,102559.22
2023-01-29T13:26:13.835Z,102557.47
2023-01-29T13:28:44.696Z,102546.72
2023-01-29T13:31:33.190Z,102544.97
2023-01-29T13:34:15.090Z,102537.72
2023-01-29T13:36:47.037Z,102538.72
2023-01-29T13:39:28.764Z,102534.38
2023-01-29T13:41:57.067Z,102533.53
2023-01-29T13:44:32.746Z,102530.75
2023-01-29T13:46:59.397Z,102526.25
2023-01-29T13:49:33.505Z,102524.56
2023-01-29T13:52:18.787Z,102521.06
2023-01-29T13:55:05.190Z,102522.91
2023-01-29T13:57:44.041Z,102502.13
2023-01-29T14:00:24.352Z,102490.19
2023-01-29T14:02:56.876Z,102495.31
2023-01-29T14:05:31.936Z,102495.09
2023-01-29T14:08:44.524Z,102500.50
2023-01-29T14:11:16.978Z,102494.28
2023-01-29T14:13:46.719Z,102503.19
2023-01-29T14:16:13.290Z,102496.84
2023-01-29T14:18:59.531Z,102482.75
2023-01-29T14:21:31.955Z,102497.66
2023-01-29T14:24:21.000Z,102448.97
2023-01-29T14:26:51.650Z,102484.91
2023-01-29T14:29:33.798Z,102453.94
2023-01-29T14:32:07.690Z,102478.47
2023-01-29T14:34:41.633Z,102483.88
2023-01-29T14:37:17.316Z,102474.72
2023-01-29T14:39:52.180Z,102477.44
2023-01-29T14:42:22.296Z,102475.56
2023-01-29T14:44:58.469Z,102477.34
2023-01-29T14:47:28.122Z,102477.28
2023-01-29T14:50:00.368Z,102471.94
2023-01-29T14:52:33.382Z,102459.59
2023-01-29T14:55:04.243Z,102462.31
2023-01-29T14:57:31.775Z,102456.53
2023-01-29T15:00:05.486Z,102462.09
2023-01-29T15:02:42.112Z,102460.25
2023-01-29T15:05:17.507Z,102456.75
2023-01-29T15:08:19.381Z,102453.06
2023-01-29T15:11:10.943Z,102449.50
2023-01-29T15:13:57.887Z,102420.25
2023-01-29T15:16:36.918Z,102437.97
2023-01-29T15:19:29.083Z,102431.69
2023-01-29T15:22:26.149Z,102429.91
2023-01-29T15:25:12.862Z,102391.59
2023-01-29T15:27:44.524Z,102430.22
2023-01-29T15:30:21.972Z,102410.06
2023-01-29T15:32:51.657Z,102334.88
2023-01-29T15:35:29.223Z,102425.94
2023-01-29T15:38:00.137Z,102419.69
2023-01-29T15:40:27.742Z,102401.47
2023-01-29T15:42:54.471Z,102408.44
2023-01-29T15:45:22.816Z,102405.59
2023-01-29T15:47:50.388Z,102397.84
2023-01-29T15:50:19.763Z,102402.19
2023-01-29T15:52:51.466Z,102393.41
2023-01-29T15:55:20.899Z,102386.69
2023-01-29T15:57:48.215Z,102387.59
2023-01-29T16:00:27.700Z,102402.53
2023-01-29T16:02:54.820Z,102395.41
2023-01-29T16:05:27.292Z,102399.06
2023-01-29T16:07:55.647Z,102365.69
2023-01-29T16:10:30.613Z,102362.09
2023-01-29T16:12:58.496Z,102375.72
2023-01-29T16:15:37.197Z,102363.91
2023-01-29T16:18:20.692Z,102383.13
2023-01-29T16:20:52.223Z,102385.91
2023-01-29T16:23:28.218Z,102385.97
2023-01-29T16:26:05.892Z,102356.84
2023-01-29T16:28:32.790Z,102371.81
2023-01-29T16:31:03.865Z,102368.16
2023-01-29T16:33:37.686Z,102365.47
2023-01-29T16:36:12.876Z,102373.56
2023-01-29T16:38:43.265Z,102348.25
2023-01-29T16:41:12.759Z,102378.16
2023-01-29T16:43:50.092Z,102379.13
2023-01-29T16:46:19.864Z,102374.59
2023-01-29T16:48:47.739Z,102365.97
2023-01-29T16:51:38.620Z,102369.19
2023-01-29T16:54:22.289Z,102371.88
2023-01-29T16:56:56.172Z,102362.09
2023-01-29T16:59:43.258Z,102354.88
2023-01-29T17:02:28.567Z,102363.91
2023-01-29T17:05:02.229Z,102356.66
2023-01-29T17:07:29.689Z,102360.28
2023-01-29T17:10:01.065Z,102365.69
2023-01-29T17:12:29.440Z,102358.44
2023-01-29T17:15:03.084Z,102353.09
2023-01-29T17:17:32.453Z,102353.09
2023-01-29T17:20:11.429Z,102348.66
2023-01-29T17:22:38.083Z,102344.19
2023-01-29T17:25:05.098Z,102352.31
2023-01-29T17:27:31.978Z,102339.38
2023-01-29T17:29:59.196Z,102356.84
2023-01-29T17:32:44.155Z,102347.91
2023-01-29T17:35:14.339Z,102341.88
2023-01-29T17:37:41.124Z,102330.34
2023-01-29T17:40:39.742Z,102330.03
2023-01-29T17:43:07.561Z,102318.72
2023-01-29T17:45:34.171Z,102321.34
2023-01-29T17:48:00.806Z,102335.44
2023-01-29T17:50:30.496Z,102264.34
2023-01-29T17:52:57.261Z,102322.16
2023-01-29T17:55:23.903Z,102302.81
2023-01-29T17:57:50.457Z,102312.19
2023-01-29T18:00:20.771Z,102283.25
2023-01-29T18:02:49.584Z,102314.84
2023-01-29T18:05:17.610Z,102300.66
2023-01-29T18:07:46.608Z,102306.66
2023-01-29T18:10:17.564Z,102318.25
2023-01-29T18:12:44.507Z,102316.44
2023-01-29T18:15:11.971Z,102321.94
2023-01-29T18:17:39.715Z,102215.88
2023-01-29T18:20:25.498Z,102320.09
2023-01-29T18:22:52.570Z,102311.03
2023-01-29T18:25:19.573Z,102288.09
2023-01-29T18:27:46.441Z,102296.78
2023-01-29T18:30:13.952Z,102302.03
2023-01-29T18:32:40.910Z,102299.31
2023-01-29T18:35:08.162Z,102286.63
2023-01-29T18:37:35.263Z,102275.81
2023-01-29T18:40:01.870Z,102278.53
2023-01-29T18:42:31.822Z,102263.09
2023-01-29T18:44:58.378Z,102249.25
2023-01-29T18:47:25.771Z,102250.59
2023-01-29T18:49:52.406Z,102256.97
2023-01-29T18:52:18.997Z,102239.13
2023-01-29T18:54:47.886Z,102193.78
2023-01-29T18:58:28.042Z,102258.69
2023-01-29T19:00:00.993Z,102247.97
2023-01-29T19:02:30.240Z,102214.81
2023-01-29T19:04:56.910Z,102228.97
2023-01-29T19:07:23.543Z,102217.28
2023-01-29T19:09:50.549Z,102218.22
2023-01-29T19:12:17.528Z,102220.06
2023-01-29T19:14:44.253Z,102207.34
2023-01-29T19:17:10.887Z,102207.41
2023-01-29T19:19:37.427Z,102181.75
2023-01-29T19:22:04.023Z,102198.38
2023-01-29T19:24:36.248Z,102192.97
2023-01-29T19:27:06.677Z,102187.63
2023-01-29T19:29:33.546Z,102135.16
2023-01-29T19:32:00.161Z,102189.38
2023-01-29T19:34:26.767Z,102179.50
2023-01-29T19:36:53.324Z,102181.28
2023-01-29T19:39:22.508Z,102178.56
2023-01-29T19:41:51.535Z,102164.09
2023-01-29T19:44:18.063Z,102125.53
2023-01-29T19:46:46.846Z,102163.28
2023-01-29T19:49:13.439Z,102140.72
2023-01-29T19:51:40.959Z,102134.34
2023-01-29T19:54:09.435Z,102132.53
2023-01-29T19:56:36.415Z,102145.16
2023-01-29T19:59:05.033Z,102131.56
2023-01-29T20:01:34.224Z,102133.47
2023-01-29T20:04:00.789Z,102153.50
2023-01-29T20:06:31.000Z,102163.22
2023-01-29T20:08:57.959Z,102156.88
2023-01-29T20:11:25.439Z,102149.84
2023-01-29T20:13:52.996Z,102147.47
2023-01-29T20:16:23.450Z,102078.78
2023-01-29T20:18:50.223Z,102114.16
2023-01-29T20:21:22.086Z,102132.53
2023-01-29T20:23:50.866Z,102121.88
2023-01-29T20:26:18.439Z,102142.28
2023-01-29T20:28:48.360Z,102145.91
2023-01-29T20:31:15.543Z,102128.78
2023-01-29T20:33:42.208Z,102133.25
2023-01-29T20:36:10.774Z,102122.19
2023-01-29T20:38:37.807Z,102123.22
2023-01-29T20:41:07.819Z,102115.81
2023-01-29T20:43:36.969Z,102122.09
2023-01-29T20:46:04.159Z,102108.50
2023-01-29T20:48:31.892Z,102096.66
2023-01-29T20:51:07.989Z,102125.59
2023-01-29T20:53:35.337Z,102124.72
2023-01-29T20:56:04.164Z,102125.53
2023-01-29T20:58:31.050Z,102036.94
2023-01-29T21:00:58.032Z,102107.38
2023-01-29T21:03:24.893Z,102112.63
2023-01-29T21:05:52.348Z,102055.72
2023-01-29T21:08:19.043Z,102115.41
2023-01-29T21:10:45.824Z,102118.81
2023-01-29T21:13:12.492Z,102098.03
2023-01-29T21:15:39.099Z,102130.28
2023-01-29T21:18:06.623Z,102114.91
2023-01-29T21:20:35.528Z,102050.16
2023-01-29T21:23:06.946Z,102104.88
2023-01-29T21:25:36.138Z,102114.75
2023-01-29T21:28:04.435Z,102095.81
2023-01-29T21:30:31.222Z,102099.41
2023-01-29T21:32:57.819Z,102087.88
2023-01-29T21:35:24.396Z,102088.66
2023-01-29T21:37:51.030Z,101915.56
2023-01-29T21:40:18.271Z,102106.41
2023-01-29T21:43:03.935Z,102022.09
2023-01-29T21:45:34.733Z,102109.03
2023-01-29T21:48:02.251Z,102096.78
2023-01-29T21:50:31.280Z,102105.34
2023-01-29T21:53:00.551Z,102103.84
2023-01-29T21:55:27.142Z,102104.31
2023-01-29T21:57:53.996Z,102104.31
2023-01-29T22:00:20.708Z,102104.22
2023-01-29T22:02:47.553Z,102080.66
2023-01-29T22:05:19.185Z,102069.84
2023-01-29T22:07:47.158Z,102078.75
2023-01-29T22:10:14.349Z,102075.94
2023-01-29T22:12:41.287Z,102047.97
2023-01-29T22:15:08.615Z,102026.66
2023-01-29T22:17:35.385Z,102001.97
2023-01-29T22:20:02.321Z,101978.81
2023-01-29T22:22:29.039Z,101968.44
2023-01-29T22:24:57.651Z,101955.19
2023-01-29T22:27:27.553Z,101948.72
2023-01-29T22:29:56.220Z,101985.38
2023-01-29T22:32:22.756Z,101973.59
2023-01-29T22:34:51.695Z,101973.84
2023-01-29T22:37:18.258Z,102020.38
2023-01-29T22:39:44.846Z,101978.81
2023-01-29T22:42:11.505Z,101954.56
2023-01-29T22:44:38.115Z,101963.31
2023-01-29T22:47:04.732Z,101975.44
2023-01-29T22:49:31.553Z,101934.59
2023-01-29T22:52:18.429Z,101903.19
2023-01-29T22:54:44.988Z,101983.13
2023-01-29T22:57:13.661Z,101985.72
2023-01-29T22:59:42.748Z,101969.16
2023-01-29T23:02:09.608Z,101977.53
2023-01-29T23:04:36.293Z,101964.84
2023-01-29T23:07:03.640Z,101947.69
2023-01-29T23:09:30.215Z,101929.59
2023-01-29T23:11:56.750Z,101920.41
2023-01-29T23:14:25.629Z,101915.47
2023-01-29T23:16:54.574Z,101920.53
2023-01-29T23:19:21.250Z,101939.25
2023-01-29T23:21:47.862Z,101925.63
2023-01-29T23:24:16.948Z,101928.81
2023-01-29T23:27:02.236Z,101914.88
2023-01-29T23:29:28.849Z,101934.66
2023-01-29T23:31:55.516Z,101881.16
2023-01-29T23:34:22.179Z,101918.41
2023-01-29T23:36:48.859Z,101903.41
2023-01-29T23:39:15.532Z,101920.94
2023-01-29T23:41:42.344Z,101904.06
2023-01-29T23:44:09.017Z,101908.00
2023-01-29T23:46:37.867Z,101884.19
2023-01-29T23:49:04.483Z,101891.59
2023-01-29T23:51:31.221Z,101881.72
2023-01-29T23:53:57.959Z,101881.78
2023-01-29T23:56:24.833Z,101871.06
2023-01-29T23:58:56.009Z,101866.06
